Time;durP1;ratioP1;P1;durP2;ratioP2;P2;SDS_P1;SDS_P2;PMS_P1;PMS_P2;Temp;Humidity;BMP_temperature;BMP_pressure;BME280_temperature;BME280_humidity;BME280_pressure;Samples;Min_cycle;Max_cycle;Signal;HPM_P1;HPM_P2
2022/07/13 00:00:26;;;;;;;4.95;2.40;;;;;;;21.13;56.67;100662.81;5019615;28;20050;-45
2022/07/13 00:02:53;;;;;;;7.25;2.17;;;;;;;21.10;56.83;100662.94;5021245;28;20081;-40
2022/07/13 00:05:21;;;;;;;3.22;2.22;;;;;;;21.05;56.70;100663.94;5023400;28;20045;-41
2022/07/13 00:07:48;;;;;;;5.50;2.15;;;;;;;21.02;56.97;100656.19;5023395;28;20049;-43
2022/07/13 00:10:15;;;;;;;5.20;2.47;;;;;;;20.98;57.40;100659.84;5019664;28;20092;-44
2022/07/13 00:12:41;;;;;;;3.50;2.20;;;;;;;20.94;57.31;100668.78;5023271;28;20049;-41
2022/07/13 00:15:09;;;;;;;3.25;2.20;;;;;;;20.92;57.40;100666.19;5017467;28;20123;-44
2022/07/13 00:17:37;;;;;;;4.75;2.42;;;;;;;20.88;57.50;100659.31;5022357;28;20720;-41
2022/07/13 00:20:06;;;;;;;4.60;2.38;;;;;;;20.86;57.56;100660.25;5026021;28;20081;-42
2022/07/13 00:22:34;;;;;;;4.72;2.13;;;;;;;20.83;57.81;100655.13;5024198;28;20478;-40
2022/07/13 00:25:03;;;;;;;5.07;2.15;;;;;;;20.79;57.76;100660.47;5023354;28;20525;-43
2022/07/13 00:27:32;;;;;;;3.65;2.13;;;;;;;20.77;57.52;100662.28;5019426;28;20136;-42
2022/07/13 00:30:00;;;;;;;4.88;2.28;;;;;;;20.73;57.65;100660.69;5023657;28;20049;-39
2022/07/13 00:32:29;;;;;;;3.88;1.90;;;;;;;20.71;57.61;100657.28;5024910;28;20058;-40
2022/07/13 00:34:58;;;;;;;4.45;2.08;;;;;;;20.66;57.51;100657.41;5021853;28;20085;-42
2022/07/13 00:37:25;;;;;;;3.90;2.10;;;;;;;20.63;57.99;100659.28;5019425;28;20081;-41
2022/07/13 00:39:52;;;;;;;4.57;2.53;;;;;;;20.59;57.91;100660.31;5021647;28;20053;-42
2022/07/13 00:42:19;;;;;;;3.60;2.10;;;;;;;20.56;57.97;100653.38;5024101;28;20428;-42
2022/07/13 00:44:45;;;;;;;5.72;2.55;;;;;;;20.55;57.48;100654.31;5022596;28;20107;-40
2022/07/13 00:47:13;;;;;;;6.15;2.38;;;;;;;20.52;57.70;100651.78;5023570;28;20444;-40
2022/07/13 00:49:39;;;;;;;3.80;2.58;;;;;;;20.47;57.89;100657.19;5022683;28;20049;-42
2022/07/13 00:52:06;;;;;;;4.47;2.28;;;;;;;20.43;58.25;100663.47;5022100;28;20049;-42
2022/07/13 00:54:35;;;;;;;5.10;2.28;;;;;;;20.43;58.22;100655.59;5025565;28;20103;-40
2022/07/13 00:57:07;;;;;;;6.95;2.35;;;;;;;20.40;58.17;100655.72;5026013;28;20061;-43
2022/07/13 00:59:35;;;;;;;4.05;2.30;;;;;;;20.37;58.36;100653.19;5023128;28;20100;-40
2022/07/13 01:02:02;;;;;;;9.40;2.47;;;;;;;20.34;58.58;100648.00;5020262;28;20489;-39
2022/07/13 01:04:29;;;;;;;5.25;2.38;;;;;;;20.28;58.39;100644.69;5016796;28;20041;-40
2022/07/13 01:06:58;;;;;;;4.93;2.20;;;;;;;20.27;57.79;100653.47;5021933;28;20099;-40
2022/07/13 01:09:25;;;;;;;6.60;2.33;;;;;;;20.26;58.34;100653.53;5022503;28;20046;-40
2022/07/13 01:11:53;;;;;;;3.97;2.00;;;;;;;20.21;58.13;100648.44;5020537;28;20050;-40
2022/07/13 01:14:20;;;;;;;4.35;2.55;;;;;;;20.18;58.25;100645.91;5017789;28;21203;-41
2022/07/13 01:16:47;;;;;;;7.95;2.42;;;;;;;20.17;58.32;100649.44;5020401;28;20041;-42
2022/07/13 01:19:15;;;;;;;4.20;2.25;;;;;;;20.14;58.75;100644.28;5020248;28;20337;-41
2022/07/13 01:21:44;;;;;;;5.10;2.60;;;;;;;20.09;58.71;100647.06;5024431;28;20050;-39
2022/07/13 01:24:11;;;;;;;6.47;2.33;;;;;;;20.05;58.43;100658.59;5024305;28;20124;-42
2022/07/13 01:26:39;;;;;;;3.25;2.30;;;;;;;20.03;59.15;100657.81;5021451;28;20362;-40
2022/07/13 01:29:06;;;;;;;3.55;2.25;;;;;;;20.01;58.77;100662.25;5019937;28;20510;-40
2022/07/13 01:31:36;;;;;;;4.53;2.78;;;;;;;20.00;58.61;100671.88;5024235;28;20049;-40
2022/07/13 01:34:04;;;;;;;4.32;2.58;;;;;;;19.95;59.23;100668.53;5021420;28;20061;-41
2022/07/13 01:36:31;;;;;;;4.93;2.63;;;;;;;19.94;58.95;100672.06;5017825;28;20136;-41
2022/07/13 01:38:58;;;;;;;5.53;2.15;;;;;;;19.91;58.91;100666.91;5024770;28;20425;-44
2022/07/13 01:41:27;;;;;;;7.25;2.58;;;;;;;19.90;58.57;100670.44;5018784;28;20501;-42
2022/07/13 01:43:57;;;;;;;3.67;2.42;;;;;;;19.86;58.59;100659.16;5022948;28;20050;-44
2022/07/13 01:46:24;;;;;;;5.68;2.38;;;;;;;19.85;58.97;100664.44;5015378;28;20064;-44
2022/07/13 01:48:54;;;;;;;5.43;2.63;;;;;;;19.81;58.70;100660.19;5022249;28;20445;-41
2022/07/13 01:51:21;;;;;;;4.25;2.85;;;;;;;19.77;59.45;100660.31;5021317;28;20052;-43
2022/07/13 01:53:47;;;;;;;6.50;2.63;;;;;;;19.76;59.51;100663.84;5026538;28;20103;-42
2022/07/13 01:56:14;;;;;;;4.72;2.60;;;;;;;19.78;59.11;100667.28;5022875;28;20057;-44
2022/07/13 01:58:41;;;;;;;4.22;2.63;;;;;;;19.77;59.65;100664.72;5018687;28;20057;-45
2022/07/13 02:01:07;;;;;;;5.30;2.50;;;;;;;19.77;59.00;100665.59;5023814;28;20046;-44
2022/07/13 02:03:34;;;;;;;7.22;2.75;;;;;;;19.76;59.57;100663.84;5024061;28;20053;-44
2022/07/13 02:06:01;;;;;;;4.22;2.47;;;;;;;19.76;59.41;100655.97;5023673;28;20132;-42
2022/07/13 02:08:28;;;;;;;4.32;2.70;;;;;;;19.80;59.54;100663.75;5023551;28;20041;-42
2022/07/13 02:10:55;;;;;;;5.80;2.40;;;;;;;19.81;59.71;100663.69;5025884;28;20499;-40
2022/07/13 02:13:22;;;;;;;3.33;1.95;;;;;;;19.83;59.46;100668.91;5026589;28;20701;-43
2022/07/13 02:15:48;;;;;;;4.63;2.90;;;;;;;19.84;59.68;100670.63;5025150;28;20108;-40
2022/07/13 02:18:16;;;;;;;5.47;2.95;;;;;;;19.84;59.32;100666.25;5021404;28;20050;-43
2022/07/13 02:20:42;;;;;;;4.25;3.00;;;;;;;19.87;59.44;100670.53;5025352;28;20148;-39
2022/07/13 02:23:09;;;;;;;6.13;2.72;;;;;;;19.89;59.22;100664.31;5025884;28;20115;-39
2022/07/13 02:25:37;;;;;;;6.28;3.13;;;;;;;19.90;59.15;100670.44;5025541;28;20428;-42
2022/07/13 02:28:06;;;;;;;5.82;2.90;;;;;;;19.91;59.92;100666.91;5023601;28;20100;-41
2022/07/13 02:30:33;;;;;;;5.85;2.60;;;;;;;19.91;59.91;100667.78;5020716;28;20046;-42
2022/07/13 02:33:01;;;;;;;5.90;2.72;;;;;;;19.92;59.47;100668.59;5024877;28;20049;-40
2022/07/13 02:35:28;;;;;;;6.25;2.47;;;;;;;19.93;59.42;100664.22;5020754;28;20197;-40
2022/07/13 02:37:55;;;;;;;7.63;3.15;;;;;;;19.94;59.79;100666.81;5024408;28;20413;-40
2022/07/13 02:40:21;;;;;;;4.95;2.25;;;;;;;19.94;59.48;100666.81;5021602;28;20580;-40
2022/07/13 02:42:48;;;;;;;5.72;2.70;;;;;;;19.95;59.67;100668.53;5024378;28;20046;-39
2022/07/13 02:45:15;;;;;;;5.97;2.60;;;;;;;19.94;59.40;100664.19;5022518;28;20041;-41
2022/07/13 02:47:42;;;;;;;3.83;2.28;;;;;;;19.94;59.46;100672.06;5025151;28;20485;-43
2022/07/13 02:50:09;;;;;;;5.05;2.95;;;;;;;19.93;59.30;100665.09;5021177;28;20119;-42
2022/07/13 02:52:35;;;;;;;4.90;2.65;;;;;;;19.87;59.35;100665.28;5028929;28;20107;-40
2022/07/13 02:55:02;;;;;;;8.52;3.45;;;;;;;19.83;59.40;100671.53;5023936;28;20482;-42
2022/07/13 02:57:29;;;;;;;7.20;3.25;;;;;;;19.75;59.35;100666.50;5020864;28;20050;-42
2022/07/13 02:59:56;;;;;;;6.78;3.35;;;;;;;19.66;59.76;100672.94;5024889;28;20068;-43
2022/07/13 03:02:22;;;;;;;5.85;2.45;;;;;;;19.57;59.61;100667.94;5023586;28;20045;-41
2022/07/13 03:04:49;;;;;;;7.63;3.22;;;;;;;19.46;59.95;100671.78;5023325;28;20053;-41
2022/07/13 03:07:16;;;;;;;4.80;3.20;;;;;;;19.38;60.43;100665.88;5023596;28;20058;-41
2022/07/13 03:09:42;;;;;;;6.13;3.05;;;;;;;19.31;60.33;100666.94;5024552;28;20042;-42
2022/07/13 03:12:09;;;;;;;7.70;2.95;;;;;;;19.27;59.77;100667.06;5020465;28;20049;-42
2022/07/13 03:14:36;;;;;;;6.78;3.13;;;;;;;19.25;60.63;100662.78;5023500;28;20045;-42
2022/07/13 03:17:03;;;;;;;4.07;2.70;;;;;;;19.20;59.87;100665.53;5023298;28;20065;-42
2022/07/13 03:19:30;;;;;;;5.68;3.20;;;;;;;19.16;60.53;100663.91;5025919;28;20616;-42
2022/07/13 03:21:57;;;;;;;4.57;2.60;;;;;;;19.12;59.94;100667.50;5022467;28;20111;-41
2022/07/13 03:24:24;;;;;;;6.63;2.78;;;;;;;19.09;59.99;100659.72;5025902;28;20045;-41
2022/07/13 03:26:51;;;;;;;5.35;2.90;;;;;;;19.05;60.57;100665.94;5025574;28;20041;-41
2022/07/13 03:29:17;;;;;;;6.15;3.00;;;;;;;19.00;60.69;100664.31;5019136;28;20045;-41
2022/07/13 03:31:44;;;;;;;6.55;3.33;;;;;;;18.98;60.40;100670.50;5023632;28;20049;-41
2022/07/13 03:34:11;;;;;;;6.50;2.90;;;;;;;18.93;60.75;100661.88;5022922;28;20050;-41
2022/07/13 03:36:37;;;;;;;6.32;3.13;;;;;;;18.88;60.35;100664.66;5018542;28;20053;-42
2022/07/13 03:39:04;;;;;;;5.57;2.92;;;;;;;18.83;61.00;100661.28;5022041;28;21449;-40
2022/07/13 03:41:30;;;;;;;5.13;3.30;;;;;;;18.80;60.32;100669.22;5022775;28;20055;-41
2022/07/13 03:43:57;;;;;;;7.15;3.38;;;;;;;18.75;60.69;100664.97;5026465;28;20048;-42
2022/07/13 03:46:24;;;;;;;6.20;2.75;;;;;;;18.73;60.97;100666.78;5023106;28;20443;-41
2022/07/13 03:48:50;;;;;;;5.10;2.60;;;;;;;18.69;60.45;100675.63;5022784;28;20143;-40
2022/07/13 03:51:17;;;;;;;4.32;2.92;;;;;;;18.65;61.44;100674.00;5022151;28;20100;-40
2022/07/13 03:53:44;;;;;;;5.88;2.55;;;;;;;18.61;61.42;100680.22;5024449;28;20076;-40
2022/07/13 03:56:10;;;;;;;6.22;3.08;;;;;;;18.59;61.52;100676.78;5022737;28;20109;-41
2022/07/13 03:58:37;;;;;;;4.32;2.72;;;;;;;18.57;61.46;100686.44;5022765;28;20045;-43
2022/07/13 04:01:05;;;;;;;5.65;3.00;;;;;;;18.55;61.23;100688.25;5020310;28;20115;-42
2022/07/13 04:03:32;;;;;;;4.20;2.92;;;;;;;18.54;61.72;100686.53;5017611;28;20061;-40
2022/07/13 04:05:59;;;;;;;6.60;3.92;;;;;;;18.52;61.56;100689.19;5022623;28;20049;-41
2022/07/13 04:08:25;;;;;;;7.72;3.33;;;;;;;18.51;61.64;100692.72;5019314;28;20042;-39
2022/07/13 04:10:52;;;;;;;8.45;2.92;;;;;;;18.52;61.53;100693.56;5022715;28;20440;-40
2022/07/13 04:13:19;;;;;;;5.97;3.30;;;;;;;18.52;61.81;100688.31;5020596;28;20053;-40
2022/07/13 04:15:45;;;;;;;6.32;2.90;;;;;;;18.50;61.58;100689.22;5023117;28;20049;-40
2022/07/13 04:18:12;;;;;;;8.07;3.10;;;;;;;18.49;61.68;100695.38;5021517;28;20099;-40
2022/07/13 04:20:39;;;;;;;7.18;2.72;;;;;;;18.47;61.71;100694.56;5025317;28;20132;-39
2022/07/13 04:23:05;;;;;;;5.70;3.13;;;;;;;18.47;61.54;100691.94;5023149;28;20049;-40
2022/07/13 04:25:32;;;;;;;6.28;2.75;;;;;;;18.47;61.99;100691.94;5024093;28;20056;-40
2022/07/13 04:27:59;;;;;;;5.25;2.65;;;;;;;18.46;61.09;100690.22;5019835;28;20096;-39
2022/07/13 04:30:25;;;;;;;5.80;3.20;;;;;;;18.47;61.50;100691.06;5026750;28;20167;-40
2022/07/13 04:32:52;;;;;;;4.35;2.83;;;;;;;18.46;61.19;100695.47;5021612;28;20099;-40
2022/07/13 04:35:19;;;;;;;4.60;2.50;;;;;;;18.49;62.15;100684.91;5020310;28;20053;-40
2022/07/13 04:37:46;;;;;;;5.10;2.53;;;;;;;18.51;61.89;100692.72;5025773;28;20486;-39
2022/07/13 04:40:12;;;;;;;5.43;2.53;;;;;;;18.52;61.52;100698.81;5022029;28;20127;-39
2022/07/13 04:42:39;;;;;;;5.82;2.95;;;;;;;18.52;61.56;100699.69;5022059;28;20092;-40
2022/07/13 04:45:06;;;;;;;4.35;2.30;;;;;;;18.55;61.80;100699.63;5021851;28;20777;-40
2022/07/13 04:47:33;;;;;;;5.10;2.60;;;;;;;18.58;62.22;100699.50;5020132;28;20046;-40
2022/07/13 04:49:59;;;;;;;5.78;2.78;;;;;;;18.63;61.75;100702.03;5023488;28;20084;-41
2022/07/13 04:52:26;;;;;;;4.97;2.67;;;;;;;18.68;62.36;100704.53;5022447;28;20053;-40
2022/07/13 04:54:53;;;;;;;4.68;2.53;;;;;;;18.75;61.85;100717.44;5024864;28;20175;-40
2022/07/13 04:57:22;;;;;;;5.28;2.50;;;;;;;18.80;61.96;100711.22;5011254;28;20521;-40
2022/07/13 04:59:48;;;;;;;5.35;2.70;;;;;;;18.85;62.26;100714.59;5021793;28;20041;-39
2022/07/13 05:02:15;;;;;;;6.43;2.63;;;;;;;18.90;62.39;100717.94;5015345;28;22131;-41
2022/07/13 05:04:42;;;;;;;6.20;3.05;;;;;;;18.93;62.00;100706.50;5022155;28;20076;-41
2022/07/13 05:07:08;;;;;;;4.72;3.17;;;;;;;18.97;62.08;100709.00;5017885;28;20045;-41
2022/07/13 05:09:35;;;;;;;6.55;2.83;;;;;;;18.97;62.89;100706.38;5021377;28;20719;-40
2022/07/13 05:12:02;;;;;;;6.53;3.30;;;;;;;18.97;62.45;100706.38;5020541;28;20543;-41
2022/07/13 05:14:29;;;;;;;6.78;3.45;;;;;;;19.00;62.70;100711.56;5020339;28;20054;-40
2022/07/13 05:16:55;;;;;;;5.65;3.47;;;;;;;19.02;62.76;100709.72;5022213;28;20107;-41
2022/07/13 05:19:22;;;;;;;6.03;3.17;;;;;;;19.06;62.46;100704.41;5016353;28;20065;-42
2022/07/13 05:21:49;;;;;;;7.43;3.17;;;;;;;19.12;62.55;100704.28;5021675;28;20056;-43
2022/07/13 05:24:15;;;;;;;4.78;3.60;;;;;;;19.14;62.28;100712.94;5022729;28;20414;-41
2022/07/13 05:26:42;;;;;;;7.22;3.15;;;;;;;19.14;62.59;100715.56;5027309;28;20072;-41
2022/07/13 05:29:09;;;;;;;6.20;3.72;;;;;;;19.14;63.24;100724.31;5022956;28;20049;-41
2022/07/13 05:31:35;;;;;;;5.43;3.20;;;;;;;19.15;62.98;100735.66;5023303;28;20095;-40
2022/07/13 05:34:03;;;;;;;6.95;3.70;;;;;;;19.17;63.28;100733.88;5024060;28;20061;-42
2022/07/13 05:36:29;;;;;;;9.02;3.40;;;;;;;19.22;63.18;100729.34;5029919;28;20531;-40
2022/07/13 05:38:56;;;;;;;5.40;3.78;;;;;;;19.32;63.04;100731.72;5027616;28;20045;-39
2022/07/13 05:41:22;;;;;;;6.55;3.75;;;;;;;19.38;62.93;100734.16;5026820;28;20049;-46
2022/07/13 05:43:49;;;;;;;6.10;3.65;;;;;;;19.43;62.85;100734.91;5028103;28;20045;-40
2022/07/13 05:46:16;;;;;;;6.53;3.97;;;;;;;19.47;63.05;100736.53;5027572;28;20033;-40
2022/07/13 05:48:42;;;;;;;8.60;3.80;;;;;;;19.51;63.17;100743.41;5028762;28;20072;-40
2022/07/13 05:51:09;;;;;;;6.85;4.35;;;;;;;19.57;63.25;100746.78;5029014;28;20045;-40
2022/07/13 05:53:56;;;;;;;7.78;3.95;;;;;;;19.64;63.10;100743.94;5026606;28;20069;-44
2022/07/13 05:56:22;;;;;;;8.07;4.35;;;;;;;19.68;63.06;100749.94;5029110;28;20053;-40
2022/07/13 05:58:49;;;;;;;7.30;3.90;;;;;;;19.73;63.66;100748.03;5022880;28;20493;-40
2022/07/13 06:01:16;;;;;;;7.10;4.00;;;;;;;19.79;63.40;100754.88;5021434;28;20057;-42
2022/07/13 06:03:43;;;;;;;7.88;4.50;;;;;;;19.83;63.54;100758.28;5023980;28;20053;-43
2022/07/13 06:06:09;;;;;;;10.73;4.05;;;;;;;19.87;62.87;100754.66;5021797;28;20050;-42
2022/07/13 06:08:38;;;;;;;8.48;4.40;;;;;;;19.90;63.30;100754.56;5027644;28;20071;-42
2022/07/13 06:11:05;;;;;;;8.40;4.07;;;;;;;19.94;63.13;100763.19;5026003;28;20053;-42
2022/07/13 06:13:31;;;;;;;10.75;5.32;;;;;;;19.97;62.86;100766.63;5029348;28;20049;-43
2022/07/13 06:15:59;;;;;;;8.80;4.85;;;;;;;20.04;63.51;100762.88;5023700;28;20061;-41
2022/07/13 06:18:26;;;;;;;9.65;5.18;;;;;;;20.10;63.44;100774.16;5021354;28;20478;-40
2022/07/13 06:20:53;;;;;;;8.80;4.90;;;;;;;20.16;62.96;100771.31;5024529;28;20056;-41
2022/07/13 06:23:21;;;;;;;11.20;5.22;;;;;;;20.19;62.90;100776.47;5030384;28;20057;-41
2022/07/13 06:25:48;;;;;;;9.80;5.00;;;;;;;20.22;63.32;100775.50;5022605;28;20049;-41
2022/07/13 06:28:14;;;;;;;9.38;5.60;;;;;;;20.27;62.99;100769.19;5020387;28;20217;-43
2022/07/13 06:30:41;;;;;;;8.07;4.70;;;;;;;20.31;62.86;100766.47;5023591;28;20123;-43
2022/07/13 06:33:08;;;;;;;10.73;4.53;;;;;;;20.34;62.91;100769.88;5024418;28;20053;-44
2022/07/13 06:35:35;;;;;;;7.93;5.13;;;;;;;20.38;62.51;100770.63;5025142;28;20061;-43
2022/07/13 06:38:01;;;;;;;7.32;4.93;;;;;;;20.45;62.58;100771.28;5024892;28;20067;-42
2022/07/13 06:40:28;;;;;;;8.93;4.40;;;;;;;20.53;62.46;100772.75;5025964;28;20065;-46
2022/07/13 06:42:55;;;;;;;8.82;4.93;;;;;;;20.60;62.34;100780.47;5022855;28;20061;-41
2022/07/13 06:45:22;;;;;;;9.65;4.55;;;;;;;20.63;62.03;100785.59;5024611;28;20887;-42
2022/07/13 06:47:51;;;;;;;6.18;3.90;;;;;;;20.64;61.65;100782.09;5026135;28;20057;-46
2022/07/13 06:50:19;;;;;;;9.73;4.57;;;;;;;20.66;61.63;100780.25;5026213;28;20047;-42
2022/07/13 06:52:46;;;;;;;7.55;4.38;;;;;;;20.72;61.58;100781.81;5028860;28;20100;-41
2022/07/13 06:55:12;;;;;;;9.25;4.97;;;;;;;20.78;61.45;100790.34;5028888;28;20865;-42
2022/07/13 06:57:39;;;;;;;6.45;3.88;;;;;;;20.83;61.14;100784.09;5024602;28;20053;-41
2022/07/13 07:00:08;;;;;;;6.18;4.15;;;;;;;20.93;61.28;100781.13;5026417;28;20048;-43
2022/07/13 07:02:36;;;;;;;9.23;3.83;;;;;;;21.05;60.74;100781.63;5027189;28;20409;-42
2022/07/13 07:05:05;;;;;;;10.70;4.07;;;;;;;21.21;61.27;100781.91;5024053;28;20777;-43
2022/07/13 07:07:31;;;;;;;6.95;3.50;;;;;;;21.58;61.20;100777.94;5028640;28;20056;-43
2022/07/13 07:09:58;;;;;;;7.13;4.00;;;;;;;22.03;60.85;100785.09;5027631;28;20574;-47
2022/07/13 07:12:25;;;;;;;6.13;3.63;;;;;;;22.43;60.05;100777.38;5025952;28;20045;-46
2022/07/13 07:14:51;;;;;;;6.35;3.35;;;;;;;22.78;58.68;100780.34;5023634;28;20049;-42
2022/07/13 07:17:18;;;;;;;6.00;3.22;;;;;;;23.09;57.69;100784.31;5020120;28;20045;-43
2022/07/13 07:19:45;;;;;;;4.93;3.58;;;;;;;23.21;56.92;100784.69;5019258;28;20053;-42
2022/07/13 07:22:12;;;;;;;5.68;3.55;;;;;;;23.22;56.69;100792.56;5022288;28;20435;-45
2022/07/13 07:24:40;;;;;;;7.50;3.15;;;;;;;23.31;56.97;100783.38;5024648;28;20512;-43
2022/07/13 07:27:09;;;;;;;5.63;3.10;;;;;;;23.57;56.03;100789.25;5025722;28;20053;-42
2022/07/13 07:29:37;;;;;;;5.25;2.80;;;;;;;23.70;55.65;100796.63;5027233;28;20058;-44
2022/07/13 07:32:05;;;;;;;4.72;2.80;;;;;;;23.86;54.61;100787.06;5027200;28;20417;-43
2022/07/13 07:34:33;;;;;;;5.00;2.58;;;;;;;24.06;54.94;100790.56;5026369;28;20068;-44
2022/07/13 07:37:00;;;;;;;7.45;3.22;;;;;;;24.15;54.50;100791.06;5028335;28;20076;-45
2022/07/13 07:39:27;;;;;;;4.70;2.20;;;;;;;24.15;53.19;100796.38;5027485;28;20060;-43
2022/07/13 07:41:53;;;;;;;4.57;2.53;;;;;;;24.17;53.35;100802.44;5027113;28;20391;-43
2022/07/13 07:44:20;;;;;;;4.40;2.97;;;;;;;24.30;53.70;100806.22;5023705;28;20053;-45
2022/07/13 07:46:52;;;;;;;5.15;2.40;;;;;;;24.48;53.28;100803.56;5026389;28;20394;-43
2022/07/13 07:49:19;;;;;;;6.50;2.30;;;;;;;24.84;52.80;100799.16;5027736;28;20057;-44
2022/07/13 07:51:46;;;;;;;3.08;2.00;;;;;;;25.09;52.16;100808.53;5026427;28;20049;-42
2022/07/13 07:54:32;;;;;;;4.88;2.00;;;;;;;25.23;51.79;100799.88;5023123;28;20076;-47
2022/07/13 07:56:59;;;;;;;3.75;2.08;;;;;;;25.54;51.01;100803.53;5022498;28;20045;-47
2022/07/13 07:59:26;;;;;;;6.25;2.30;;;;;;;25.71;50.26;100809.72;5027416;28;20045;-46
2022/07/13 08:01:53;;;;;;;3.63;1.80;;;;;;;25.60;49.65;100802.38;5026470;28;20489;-43
2022/07/13 08:04:20;;;;;;;3.63;2.25;;;;;;;25.65;50.02;100811.78;5026696;28;20041;-42
2022/07/13 08:06:47;;;;;;;5.65;2.20;;;;;;;25.89;49.48;100807.84;5024430;28;20049;-43
2022/07/13 08:09:14;;;;;;;4.22;1.60;;;;;;;26.12;49.36;100805.72;5026575;28;20056;-43
2022/07/13 08:11:41;;;;;;;4.85;1.40;;;;;;;26.24;48.41;100802.34;5023902;28;20049;-45
2022/07/13 08:14:08;;;;;;;4.85;1.40;;;;;;;26.22;48.00;100798.94;5023420;28;20100;-44
2022/07/13 08:16:35;;;;;;;7.10;1.42;;;;;;;26.08;47.72;100813.00;5022523;28;20100;-42
2022/07/13 08:19:02;;;;;;;3.78;1.40;;;;;;;25.96;47.76;100819.84;5026983;28;20078;-43
2022/07/13 08:21:49;;;;;;;3.90;1.30;;;;;;;25.98;47.33;100814.47;5026021;28;20065;-46
2022/07/13 08:24:15;;;;;;;2.63;1.05;;;;;;;25.97;47.51;100818.06;5022920;28;20058;-42
2022/07/13 08:26:42;;;;;;;6.13;1.20;;;;;;;25.84;47.48;100815.22;5025589;28;20100;-43
2022/07/13 08:29:09;;;;;;;4.13;1.33;;;;;;;25.57;47.27;100813.97;5028790;28;20050;-47
2022/07/13 08:31:35;;;;;;;6.10;1.30;;;;;;;25.29;47.37;100820.72;5025051;28;20041;-42
2022/07/13 08:39:35;;;;;;;2.20;1.15;;;;;;;24.58;48.65;100835.78;5021126;28;20042;-44
2022/07/13 08:42:03;;;;;;;2.85;1.20;;;;;;;24.70;48.69;100826.34;5025174;28;20077;-43
2022/07/13 08:44:30;;;;;;;3.22;1.33;;;;;;;25.02;48.98;100829.19;5024069;28;20118;-41
2022/07/13 08:47:05;;;;;;;3.17;0.98;;;;;;;25.26;47.80;100831.50;5022017;28;20050;-42
2022/07/13 08:49:32;;;;;;;7.22;2.63;;;;;;;25.27;47.25;100835.88;5023520;28;20061;-46
2022/07/13 08:51:59;;;;;;;5.32;1.15;;;;;;;25.27;46.50;100833.22;5024413;28;20052;-44
2022/07/13 08:54:26;;;;;;;5.57;1.30;;;;;;;25.40;47.21;100839.56;5024502;28;20053;-42
2022/07/13 08:56:53;;;;;;;7.55;1.25;;;;;;;25.60;46.33;100835.03;5025759;28;20091;-46
2022/07/13 08:59:19;;;;;;;6.43;0.82;;;;;;;25.78;45.91;100842.94;5021145;28;20112;-45
2022/07/13 09:01:46;;;;;;;4.00;1.13;;;;;;;25.91;46.13;100849.28;5024475;28;20045;-41
2022/07/13 09:04:15;;;;;;;3.15;1.17;;;;;;;26.00;45.53;100841.78;5024040;28;20054;-45
2022/07/13 09:06:45;;;;;;;4.07;1.45;;;;;;;26.15;45.00;100851.53;5024698;28;20051;-42
2022/07/13 09:14:56;;;;;;;3.85;0.93;;;;;;;26.62;43.34;100854.25;5031605;28;20412;-45
2022/07/13 09:17:29;;;;;;;3.80;0.82;;;;;;;26.72;43.10;100853.72;4996818;28;20104;-43
2022/07/13 09:19:59;;;;;;;8.63;1.33;;;;;;;26.83;43.63;100861.91;5000688;28;20483;-38
2022/07/13 09:22:25;;;;;;;4.35;1.27;;;;;;;26.92;42.41;100861.34;5014670;28;20065;-46
2022/07/13 09:24:53;;;;;;;5.70;1.40;;;;;;;26.98;42.37;100854.03;5016593;28;20053;-43
2022/07/13 09:27:21;;;;;;;6.00;1.40;;;;;;;27.03;42.46;100857.25;5019460;28;20061;-46
2022/07/13 09:29:49;;;;;;;5.32;1.30;;;;;;;27.18;43.01;100869.63;5018256;28;20058;-44
2022/07/13 09:32:15;;;;;;;4.53;1.08;;;;;;;27.40;41.72;100876.31;5017895;28;20041;-44
2022/07/13 09:37:24;;;;;;;4.18;1.50;;;;;;;27.76;41.43;100865.31;5015276;27;20415;-44
2022/07/13 09:40:09;;;;;;;6.60;1.10;;;;;;;27.77;41.05;100867.03;5007569;28;20050;-43
2022/07/13 09:42:39;;;;;;;4.55;1.42;;;;;;;27.89;40.95;100874.22;5036042;28;20054;-44
2022/07/13 09:47:57;;;;;;;4.22;1.00;;;;;;;28.06;40.24;100872.31;5007013;28;20108;-43
2022/07/13 09:50:37;;;;;;;4.97;1.20;;;;;;;28.01;40.43;100879.72;5016019;28;20045;-43
2022/07/13 09:53:27;;;;;;;5.97;1.52;;;;;;;27.99;40.30;100876.31;4999412;28;20042;-43
2022/07/13 09:55:57;;;;;;;4.57;1.98;;;;;;;28.05;39.77;100875.91;5011756;28;20388;-43
2022/07/13 09:58:33;;;;;;;3.90;1.75;;;;;;;28.13;39.35;100870.94;5005500;28;20069;-43
2022/07/13 10:01:03;;;;;;;4.32;0.93;;;;;;;28.25;38.72;100871.09;5011889;28;20049;-45
2022/07/13 10:03:31;;;;;;;4.00;1.15;;;;;;;28.30;39.10;100879.72;5015782;28;20046;-43
2022/07/13 10:06:00;;;;;;;4.72;1.20;;;;;;;28.31;39.00;100876.09;5001287;28;20060;-44
2022/07/13 10:08:27;;;;;;;4.57;1.02;;;;;;;28.38;38.51;100872.06;5014473;28;20508;-44
2022/07/13 10:10:54;;;;;;;3.65;0.90;;;;;;;28.48;38.32;100875.81;5016598;28;20072;-44
2022/07/13 10:13:21;;;;;;;5.32;2.08;;;;;;;28.62;37.82;100874.06;5010104;28;20494;-44
2022/07/13 10:15:48;;;;;;;6.45;0.63;;;;;;;28.73;38.28;100871.53;5006080;28;20049;-43
2022/07/13 10:18:28;;;;;;;3.20;0.60;;;;;;;28.81;37.99;100878.16;5015298;28;20056;-43
2022/07/13 10:21:10;;;;;;;6.07;1.40;;;;;;;28.87;38.17;100877.75;5018029;28;20077;-44
2022/07/13 10:23:38;;;;;;;5.18;1.02;;;;;;;28.91;37.69;100878.41;5006389;28;20510;-45
2022/07/13 10:26:20;;;;;;;8.00;1.40;;;;;;;28.86;36.79;100862.72;4985090;28;20046;-44
2022/07/13 10:29:10;;;;;;;3.47;2.20;;;;;;;28.87;37.71;100875.06;5006418;28;20597;-44
2022/07/13 10:31:40;;;;;;;3.83;1.00;;;;;;;29.02;37.11;100870.56;4998366;28;20054;-43
2022/07/13 10:34:10;;;;;;;4.72;1.05;;;;;;;28.89;37.49;100869.63;4980346;28;20189;-44
2022/07/13 10:36:56;;;;;;;6.13;1.23;;;;;;;28.76;36.85;100864.28;4995321;28;20046;-43
2022/07/13 10:39:26;;;;;;;5.13;1.08;;;;;;;28.71;37.30;100865.44;5001573;28;20078;-45
2022/07/13 10:42:10;;;;;;;3.17;0.98;;;;;;;28.71;38.00;100867.28;4994856;28;20049;-43
2022/07/13 10:44:41;;;;;;;4.57;1.58;;;;;;;28.84;37.78;100867.31;5008614;28;20054;-49
2022/07/13 10:47:11;;;;;;;7.72;1.95;;;;;;;28.91;38.08;100863.28;4997900;28;20046;-48
2022/07/13 10:49:46;;;;;;;4.32;1.42;;;;;;;29.04;37.82;100862.47;4988449;28;20054;-49
2022/07/13 10:57:42;;;;;;;3.13;1.23;;;;;;;29.39;38.21;100867.16;5032769;27;20390;-46
2022/07/13 11:02:48;;;;;;;5.22;1.88;;;;;;;29.57;37.04;100875.72;5069421;27;20908;-45
2022/07/13 11:05:17;;;;;;;5.38;2.40;;;;;;;29.56;37.37;100873.16;5044654;28;20099;-47
2022/07/13 11:07:47;;;;;;;5.22;2.05;;;;;;;29.57;36.59;100874.84;5042396;28;20045;-43
2022/07/13 11:18:25;;;;;;;4.80;1.83;;;;;;;29.62;36.31;100872.72;5027736;28;20400;-42
2022/07/13 11:31:39;;;;;;;4.43;2.65;;;;;;;29.43;36.26;100873.13;5046261;27;21109;-44
2022/07/13 11:34:07;;;;;;;4.88;2.50;;;;;;;29.38;36.23;100868.13;5008455;28;20088;-44
2022/07/13 11:36:34;;;;;;;3.28;2.60;;;;;;;29.30;36.24;100873.13;5000231;28;20068;-44
2022/07/13 11:39:01;;;;;;;5.25;2.55;;;;;;;29.18;36.15;100875.69;5000960;28;20057;-44
2022/07/13 11:41:27;;;;;;;7.15;2.60;;;;;;;29.07;35.98;100872.88;4999838;28;20058;-46
2022/07/13 11:43:54;;;;;;;4.95;2.58;;;;;;;29.04;35.56;100867.78;5002314;28;20050;-47
2022/07/13 11:46:24;;;;;;;3.83;2.42;;;;;;;29.03;35.76;100874.06;5002585;28;20916;-46
2022/07/13 11:49:07;;;;;;;3.30;2.30;;;;;;;28.96;35.93;100862.97;4984623;28;20093;-46
2022/07/13 11:51:33;;;;;;;4.82;1.80;;;;;;;29.09;35.25;100865.66;5002810;28;20391;-44
2022/07/13 11:54:09;;;;;;;7.13;3.10;;;;;;;29.09;35.20;100860.31;5003669;28;20065;-43
2022/07/13 11:56:45;;;;;;;;;;;;;;;28.96;35.88;100866.50;5003717;28;20041;-42
2022/07/13 11:59:11;;;;;;;6.45;2.42;;;;;;;29.19;34.94;100856.06;5003406;28;19934;-43
2022/07/13 12:01:38;;;;;;;4.63;2.33;;;;;;;29.25;35.54;100855.63;5003794;28;20053;-44
2022/07/13 12:04:05;;;;;;;7.03;3.20;;;;;;;29.26;34.90;100856.50;5002772;28;20089;-43
2022/07/13 12:06:32;;;;;;;5.97;2.47;;;;;;;29.19;34.92;100844.53;5001686;28;20054;-44
2022/07/13 12:08:59;;;;;;;6.47;3.38;;;;;;;29.19;34.29;100864.06;5003103;28;20065;-43
2022/07/13 12:11:26;;;;;;;8.73;2.85;;;;;;;29.13;33.94;100861.81;5004686;28;20054;-43